sim
Sign-in with your pilot id or email,
or register
Callsign
Passwort

Schedule Details

Flight Number: OEO4541
Departure: Dortmund Airport (EDLW) at 16:50
Arrival: Munich Airport (EDDM) at 18:05

Weather Information
Getting current METAR information for EDLW 270920Z 12008KT 9999 BKN018 11/07 Q1001
Getting current METAR information for EDDM 270920Z 20008KT 150V250 9999 FEW035 12/04 Q1005 NOSIG

Schedule Frequency

Route Map